createdAt,value
2018-04-01T00:01:14.577Z,64.61
2018-04-01T00:03:42.155Z,64.34
2018-04-01T00:06:10.083Z,63.88
2018-04-01T00:08:37.640Z,64.11
2018-04-01T00:11:05.915Z,64.23
2018-04-01T00:13:33.855Z,64.43
2018-04-01T00:16:01.392Z,64.01
2018-04-01T00:18:28.916Z,64.70
2018-04-01T00:20:56.464Z,64.80
2018-04-01T00:23:24.028Z,64.29
2018-04-01T00:25:53.383Z,65.24
2018-04-01T00:28:21.376Z,64.84
2018-04-01T00:30:48.958Z,65.05
2018-04-01T00:33:16.664Z,64.96
2018-04-01T00:35:44.338Z,64.83
2018-04-01T00:38:11.847Z,64.97
2018-04-01T00:40:39.408Z,65.06
2018-04-01T00:43:06.919Z,65.38
2018-04-01T00:45:34.494Z,65.22
2018-04-01T00:48:02.040Z,65.51
2018-04-01T00:50:30.083Z,65.99
2018-04-01T00:52:58.323Z,66.02
2018-04-01T00:55:25.916Z,66.23
2018-04-01T00:57:53.579Z,66.11
2018-04-01T01:00:21.105Z,66.74
2018-04-01T01:02:48.627Z,66.82
2018-04-01T01:05:16.227Z,66.26
2018-04-01T01:07:44.187Z,66.64
2018-04-01T01:10:12.535Z,66.25
2018-04-01T01:12:40.194Z,65.94
2018-04-01T01:15:07.764Z,65.67
2018-04-01T01:17:35.377Z,65.55
2018-04-01T01:20:02.939Z,65.48
2018-04-01T01:22:31.223Z,65.57
2018-04-01T01:24:58.739Z,66.00
2018-04-01T01:27:26.643Z,66.74
2018-04-01T01:29:55.130Z,67.02
2018-04-01T01:32:23.052Z,66.22
2018-04-01T01:34:55.939Z,66.22
2018-04-01T01:37:23.866Z,65.92
2018-04-01T01:39:53.042Z,65.79
2018-04-01T01:42:21.439Z,66.07
2018-04-01T01:44:50.462Z,65.96
2018-04-01T01:47:18.050Z,66.67
2018-04-01T01:49:45.607Z,67.36
2018-04-01T01:52:13.148Z,66.70
2018-04-01T01:54:40.655Z,67.26
2018-04-01T01:57:08.186Z,67.82
2018-04-01T01:59:35.807Z,68.13
2018-04-01T02:02:03.674Z,68.78
2018-04-01T02:04:32.642Z,69.17
2018-04-01T02:07:02.609Z,69.53
2018-04-01T02:09:30.511Z,70.03
2018-04-01T02:11:58.443Z,70.45
2018-04-01T02:14:26.025Z,70.59
2018-04-01T02:16:53.531Z,70.80
2018-04-01T02:19:21.096Z,71.27
2018-04-01T02:21:49.672Z,71.59
2018-04-01T02:24:18.853Z,71.67
2018-04-01T02:26:46.806Z,72.08
2018-04-01T02:29:15.281Z,72.29
2018-04-01T02:31:43.522Z,72.38
2018-04-01T02:34:12.152Z,72.89
2018-04-01T02:36:40.216Z,73.21
2018-04-01T02:39:08.796Z,73.61
2018-04-01T02:41:36.343Z,73.75
2018-04-01T02:44:04.357Z,73.68
2018-04-01T02:46:34.132Z,73.75
2018-04-01T02:49:03.147Z,73.92
2018-04-01T02:51:31.542Z,73.61
2018-04-01T02:53:59.138Z,73.86
2018-04-01T02:56:27.485Z,74.04
2018-04-01T02:58:54.997Z,73.97
2018-04-01T03:01:23.271Z,73.92
2018-04-01T03:03:51.427Z,73.68
2018-04-01T03:06:20.522Z,73.78
2018-04-01T03:08:48.094Z,74.35
2018-04-01T03:11:16.981Z,74.57
2018-04-01T03:13:46.079Z,74.42
2018-04-01T03:16:14.093Z,74.41
2018-04-01T03:18:41.690Z,74.61
2018-04-01T03:21:09.220Z,74.64
2018-04-01T03:23:36.751Z,74.60
2018-04-01T03:26:06.604Z,74.78
2018-04-01T03:28:35.671Z,75.18
2018-04-01T03:31:03.543Z,75.07
2018-04-01T03:33:32.113Z,75.37
2018-04-01T03:36:01.577Z,75.52
2018-04-01T03:38:29.584Z,75.69
2018-04-01T03:40:57.105Z,75.64
2018-04-01T03:43:24.718Z,76.07
2018-04-01T03:45:52.236Z,76.37
2018-04-01T03:48:19.837Z,76.79
2018-04-01T03:50:50.972Z,77.08
2018-04-01T03:53:19.276Z,76.49
2018-04-01T03:55:47.059Z,76.31
2018-04-01T03:58:14.855Z,76.20
2018-04-01T04:00:42.722Z,75.70
2018-04-01T04:03:10.411Z,75.78
2018-04-01T04:05:38.277Z,76.04
2018-04-01T04:08:05.876Z,75.62
2018-04-01T04:10:33.387Z,75.31
2018-04-01T04:13:00.952Z,75.35
2018-04-01T04:15:28.500Z,75.33
2018-04-01T04:17:56.781Z,75.14
2018-04-01T04:20:25.334Z,75.55
2018-04-01T04:22:54.428Z,75.84
2018-04-01T04:25:22.096Z,76.17
2018-04-01T04:27:51.041Z,76.38
2018-04-01T04:30:18.821Z,76.48
2018-04-01T04:32:46.337Z,76.43
2018-04-01T04:35:13.951Z,75.99
2018-04-01T04:37:41.693Z,76.07
2018-04-01T04:40:09.249Z,76.27
2018-04-01T04:42:36.828Z,76.28
2018-04-01T04:45:04.780Z,76.31
2018-04-01T04:47:32.518Z,76.04
2018-04-01T04:50:00.127Z,75.86
2018-04-01T04:52:27.640Z,75.42
2018-04-01T04:54:55.154Z,75.31
2018-04-01T04:57:23.708Z,74.87
2018-04-01T04:59:51.613Z,74.97
2018-04-01T05:02:19.554Z,74.39
2018-04-01T05:04:47.543Z,74.85
2018-04-01T05:07:15.145Z,74.75
2018-04-01T05:09:42.793Z,74.59
2018-04-01T05:12:11.080Z,74.53
2018-04-01T05:14:38.623Z,74.40
2018-04-01T05:17:06.163Z,74.43
2018-04-01T05:19:34.271Z,74.36
2018-04-01T05:22:02.524Z,74.41
2018-04-01T05:24:31.520Z,74.39
2018-04-01T05:26:59.524Z,74.59
2018-04-01T05:29:27.316Z,74.80
2018-04-01T05:31:55.665Z,74.76
2018-04-01T05:34:23.326Z,75.04
2018-04-01T05:36:51.142Z,75.33
2018-04-01T05:39:18.676Z,75.75
2018-04-01T05:41:46.353Z,75.62
2018-04-01T05:44:15.332Z,75.57
2018-04-01T05:46:44.483Z,75.62
2018-04-01T05:49:12.791Z,75.67
2018-04-01T05:51:40.996Z,75.63
2018-04-01T05:54:08.724Z,75.70
2018-04-01T05:56:36.231Z,75.34
2018-04-01T05:59:03.796Z,75.75
2018-04-01T06:01:31.348Z,75.97
2018-04-01T06:03:59.120Z,76.75
2018-04-01T06:06:28.174Z,76.10
2018-04-01T06:08:55.965Z,76.65
2018-04-01T06:11:23.523Z,77.15
2018-04-01T06:13:52.069Z,77.79
2018-04-01T06:16:20.464Z,78.98
2018-04-01T06:18:49.558Z,78.06
2018-04-01T06:21:17.924Z,78.64
2018-04-01T06:23:45.851Z,77.84
2018-04-01T06:26:14.402Z,78.26
2018-04-01T06:28:43.411Z,78.68
2018-04-01T06:31:12.504Z,78.24
2018-04-01T06:33:41.681Z,78.71
2018-04-01T06:36:09.231Z,79.07
2018-04-01T06:38:37.227Z,79.26
2018-04-01T06:41:06.510Z,79.16
2018-04-01T06:43:34.101Z,78.82
2018-04-01T06:46:02.500Z,78.69
2018-04-01T06:48:30.492Z,78.60
2018-04-01T06:50:58.231Z,78.00
2018-04-01T06:53:26.812Z,76.92
2018-04-01T06:55:54.346Z,76.08
2018-04-01T06:58:21.884Z,75.17
2018-04-01T07:00:49.852Z,75.11
2018-04-01T07:03:18.262Z,74.76
2018-04-01T07:05:46.188Z,74.53
2018-04-01T07:08:13.793Z,75.75
2018-04-01T07:10:42.073Z,76.84
2018-04-01T07:13:09.864Z,69.32
2018-04-01T07:15:37.965Z,64.10
2018-04-01T07:18:05.580Z,60.86
2018-04-01T07:20:34.776Z,60.30
2018-04-01T07:23:03.108Z,63.02
2018-04-01T07:25:33.025Z,66.04
2018-04-01T07:28:01.277Z,65.83
2018-04-01T07:30:28.797Z,67.33
2018-04-01T07:32:56.379Z,66.90
2018-04-01T07:35:26.116Z,67.58
2018-04-01T07:37:53.656Z,68.15
2018-04-01T07:40:21.875Z,68.26
2018-04-01T07:42:50.236Z,72.46
2018-04-01T07:45:18.381Z,74.32
2018-04-01T07:47:45.956Z,75.50
2018-04-01T07:50:13.500Z,76.67
2018-04-01T07:52:41.748Z,79.02
2018-04-01T07:55:09.264Z,80.15
2018-04-01T07:57:37.228Z,80.92
2018-04-01T08:00:04.846Z,82.58
2018-04-01T08:02:32.384Z,83.92
2018-04-01T08:04:59.991Z,84.20
2018-04-01T08:07:28.283Z,82.07
2018-04-01T08:09:57.325Z,81.47
2018-04-01T08:12:25.981Z,77.55
2018-04-01T08:14:53.746Z,78.57
2018-04-01T08:17:21.574Z,78.11
2018-04-01T08:19:53.672Z,78.59
2018-04-01T08:22:21.772Z,78.24
2018-04-01T08:24:49.291Z,80.09
2018-04-01T08:27:16.826Z,77.52
2018-04-01T08:29:44.393Z,78.26
2018-04-01T08:32:12.420Z,77.93
2018-04-01T08:34:39.941Z,76.49
2018-04-01T08:37:07.484Z,74.13
2018-04-01T08:39:35.036Z,73.15
2018-04-01T08:42:03.315Z,71.74
2018-04-01T08:44:31.620Z,73.52
2018-04-01T08:46:59.135Z,76.17
2018-04-01T08:49:27.193Z,74.33
2018-04-01T08:51:55.143Z,75.34
2018-04-01T08:54:22.660Z,74.98
2018-04-01T08:56:52.624Z,73.90
2018-04-01T08:59:20.160Z,71.54
2018-04-01T09:01:47.688Z,71.82
2018-04-01T09:04:15.244Z,73.66
2018-04-01T09:06:44.043Z,71.60
2018-04-01T09:09:11.774Z,72.11
2018-04-01T09:11:39.315Z,73.22
2018-04-01T09:14:07.512Z,72.05
2018-04-01T09:16:35.708Z,69.06
2018-04-01T09:19:05.223Z,68.94
2018-04-01T09:21:32.804Z,70.63
2018-04-01T09:24:00.327Z,69.34
2018-04-01T09:26:28.785Z,66.13
2018-04-01T09:28:56.408Z,66.22
2018-04-01T09:31:24.671Z,67.72
2018-04-01T09:33:52.755Z,65.89
2018-04-01T09:36:20.289Z,71.03
2018-04-01T09:38:47.902Z,74.53
2018-04-01T09:41:15.590Z,74.98
2018-04-01T09:43:44.284Z,77.54
2018-04-01T09:46:11.919Z,75.70
2018-04-01T09:48:41.002Z,73.74
2018-04-01T09:51:08.554Z,71.14
2018-04-01T09:53:36.086Z,71.86
2018-04-01T09:56:04.327Z,70.89
2018-04-01T09:58:31.868Z,69.58
2018-04-01T10:01:01.181Z,69.74
2018-04-01T10:03:29.536Z,72.21
2018-04-01T10:05:58.081Z,70.70
2018-04-01T10:08:35.683Z,70.32
2018-04-01T10:11:04.691Z,67.29
2018-04-01T10:13:33.840Z,65.87
2018-04-01T10:16:02.874Z,63.68
2018-04-01T10:18:32.367Z,66.09
2018-04-01T10:21:01.664Z,63.84
2018-04-01T10:23:30.015Z,65.60
2018-04-01T10:25:59.093Z,62.79
2018-04-01T10:28:27.815Z,63.59
2018-04-01T10:30:56.451Z,62.35
2018-04-01T10:33:24.767Z,62.32
2018-04-01T10:35:53.852Z,59.06
2018-04-01T10:38:22.871Z,56.97
2018-04-01T10:40:51.200Z,58.76
2018-04-01T10:43:19.618Z,60.90
2018-04-01T10:45:48.489Z,61.54
2018-04-01T10:48:16.841Z,60.83
2018-04-01T10:50:45.221Z,61.20
2018-04-01T10:53:14.990Z,61.23
2018-04-01T10:55:42.525Z,60.37
2018-04-01T10:58:11.144Z,61.26
2018-04-01T11:00:38.672Z,60.34
2018-04-01T11:03:06.959Z,60.79
2018-04-01T11:05:35.372Z,61.92
2018-04-01T11:08:03.173Z,59.97
2018-04-01T11:10:31.154Z,60.22
2018-04-01T11:12:59.761Z,59.70
2018-04-01T11:15:27.276Z,60.32
2018-04-01T11:17:54.804Z,61.75
2018-04-01T11:20:22.368Z,65.99
2018-04-01T11:22:49.888Z,78.60
2018-04-01T11:25:18.511Z,84.03
2018-04-01T11:27:46.187Z,84.32
2018-04-01T11:30:14.145Z,81.52
2018-04-01T11:32:41.724Z,83.08
2018-04-01T11:35:10.108Z,82.22
2018-04-01T11:37:38.422Z,81.10
2018-04-01T11:40:06.015Z,81.83
2018-04-01T11:42:33.692Z,79.63
2018-04-01T11:45:01.264Z,80.68
2018-04-01T11:47:29.220Z,76.75
2018-04-01T11:49:56.780Z,75.54
2018-04-01T11:52:24.305Z,74.21
2018-04-01T11:54:51.818Z,69.50
2018-04-01T11:57:19.394Z,68.19
2018-04-01T11:59:47.065Z,69.12
2018-04-01T12:02:15.361Z,68.62
2018-04-01T12:04:43.588Z,69.32
2018-04-01T12:07:11.107Z,67.47
2018-04-01T12:09:39.297Z,67.13
2018-04-01T12:12:06.928Z,66.68
2018-04-01T12:14:34.447Z,68.25
2018-04-01T12:17:01.991Z,64.48
2018-04-01T12:19:29.575Z,59.38
2018-04-01T12:21:58.382Z,63.69
2018-04-01T12:24:29.809Z,65.32
2018-04-01T12:26:57.940Z,64.93
2018-04-01T12:29:25.539Z,63.54
2018-04-01T12:31:53.195Z,64.11
2018-04-01T12:34:21.397Z,64.27
2018-04-01T12:36:48.982Z,63.80
2018-04-01T12:39:17.628Z,63.92
2018-04-01T12:41:45.185Z,66.49
2018-04-01T12:44:12.717Z,64.26
2018-04-01T12:46:41.883Z,62.21
2018-04-01T12:49:09.452Z,63.16
2018-04-01T12:51:37.305Z,63.44
2018-04-01T12:54:04.828Z,62.90
2018-04-01T12:56:32.376Z,62.37
2018-04-01T12:58:59.959Z,58.86
2018-04-01T13:04:01.164Z,58.92
2018-04-01T13:06:28.708Z,59.32
2018-04-01T13:08:57.876Z,60.79
2018-04-01T13:11:25.398Z,60.58
2018-04-01T13:13:52.972Z,60.22
2018-04-01T13:16:21.281Z,60.10
2018-04-01T13:18:49.422Z,60.23
2018-04-01T13:21:17.000Z,61.21
2018-04-01T13:23:45.182Z,62.40
2018-04-01T13:26:13.421Z,62.82
2018-04-01T13:28:40.939Z,64.13
2018-04-01T13:31:09.272Z,70.45
2018-04-01T13:33:36.848Z,74.52
2018-04-01T13:36:05.152Z,77.34
2018-04-01T13:38:38.136Z,79.96
2018-04-01T13:41:06.364Z,81.24
2018-04-01T13:43:33.884Z,82.10
2018-04-01T13:46:01.464Z,81.46
2018-04-01T13:48:28.980Z,80.21
2018-04-01T13:50:57.632Z,79.65
2018-04-01T13:53:25.411Z,77.49
2018-04-01T13:55:53.585Z,74.30
2018-04-01T13:58:22.681Z,73.56
2018-04-01T14:00:50.275Z,74.03
2018-04-01T14:03:17.810Z,74.02
2018-04-01T14:05:45.335Z,72.22
2018-04-01T14:08:13.446Z,70.76
2018-04-01T14:10:42.396Z,68.70
2018-04-01T14:13:09.928Z,66.97
2018-04-01T14:15:38.290Z,67.01
2018-04-01T14:18:05.880Z,65.06
2018-04-01T14:20:33.396Z,62.29
2018-04-01T14:23:01.336Z,63.55
2018-04-01T14:25:29.660Z,63.78
2018-04-01T14:27:58.023Z,62.67
2018-04-01T14:30:25.541Z,62.30
2018-04-01T14:32:54.569Z,63.32
2018-04-01T14:35:26.119Z,62.14
2018-04-01T14:37:53.631Z,60.95
2018-04-01T14:40:21.234Z,59.84
2018-04-01T14:42:49.951Z,59.94
2018-04-01T14:45:17.469Z,61.52
2018-04-01T14:47:45.057Z,59.26
2018-04-01T14:50:13.286Z,58.35
2018-04-01T14:52:42.274Z,58.90
2018-04-01T14:55:10.339Z,58.50
2018-04-01T14:57:38.036Z,57.40
2018-04-01T15:00:05.576Z,53.98
2018-04-01T15:02:33.095Z,55.77
2018-04-01T15:05:01.337Z,56.12
2018-04-01T15:07:28.904Z,55.46
2018-04-01T15:09:56.421Z,55.90
2018-04-01T15:12:23.978Z,57.52
2018-04-01T15:14:51.502Z,59.74
2018-04-01T15:17:19.789Z,59.23
2018-04-01T15:19:47.377Z,60.82
2018-04-01T15:22:14.938Z,61.38
2018-04-01T15:24:42.773Z,60.99
2018-04-01T15:27:10.656Z,61.55
2018-04-01T15:29:38.400Z,61.49
2018-04-01T15:32:05.920Z,62.68
2018-04-01T15:34:33.480Z,61.41
2018-04-01T15:37:01.460Z,61.75
2018-04-01T15:39:29.290Z,61.64
2018-04-01T15:41:57.265Z,61.90
2018-04-01T15:44:24.818Z,62.51
2018-04-01T15:46:52.666Z,62.96
2018-04-01T15:49:20.701Z,63.06
2018-04-01T15:51:48.244Z,63.25
2018-04-01T15:54:16.314Z,62.96
2018-04-01T15:56:45.030Z,64.01
2018-04-01T15:59:12.564Z,65.32
2018-04-01T16:01:40.498Z,68.77
2018-04-01T16:04:09.180Z,71.38
2018-04-01T16:06:36.737Z,70.91
2018-04-01T16:09:04.416Z,72.50
2018-04-01T16:11:31.981Z,72.59
2018-04-01T16:13:59.984Z,71.26
2018-04-01T16:16:28.930Z,71.01
2018-04-01T16:18:56.708Z,70.70
2018-04-01T16:21:24.649Z,69.83
2018-04-01T16:23:52.486Z,69.00
2018-04-01T16:26:21.136Z,68.02
2018-04-01T16:28:48.664Z,66.19
2018-04-01T16:31:17.008Z,66.12
2018-04-01T16:33:46.031Z,65.02
2018-04-01T16:36:13.624Z,64.83
2018-04-01T16:38:42.642Z,65.17
2018-04-01T16:41:11.020Z,64.53
2018-04-01T16:43:39.028Z,64.54
2018-04-01T16:46:06.643Z,64.85
2018-04-01T16:48:34.472Z,63.73
2018-04-01T16:51:02.302Z,64.43
2018-04-01T16:53:30.132Z,64.54
2018-04-01T16:55:58.904Z,64.95
2018-04-01T16:58:26.656Z,65.01
2018-04-01T17:00:55.601Z,65.01
2018-04-01T17:03:23.160Z,64.84
2018-04-01T17:05:51.984Z,65.18
2018-04-01T17:08:21.259Z,64.95
2018-04-01T17:10:50.240Z,65.45
2018-04-01T17:13:18.598Z,64.73
2018-04-01T17:15:46.172Z,65.12
2018-04-01T17:18:14.496Z,65.27
2018-04-01T17:20:42.089Z,65.79
2018-04-01T17:23:09.888Z,64.89
2018-04-01T17:25:38.409Z,65.20
2018-04-01T17:28:06.565Z,64.95
2018-04-01T17:30:36.556Z,65.28
2018-04-01T17:33:04.653Z,64.86
2018-04-01T17:35:33.095Z,64.99
2018-04-01T17:38:00.864Z,65.22
2018-04-01T17:40:28.833Z,65.53
2018-04-01T17:42:56.355Z,65.66
2018-04-01T17:45:25.174Z,66.07
2018-04-01T17:47:55.151Z,65.61
2018-04-01T17:50:22.668Z,66.39
2018-04-01T17:52:50.887Z,69.32
2018-04-01T17:55:18.505Z,71.00
2018-04-01T17:57:46.074Z,72.37
2018-04-01T18:00:14.354Z,73.35
2018-04-01T18:02:42.340Z,74.62
2018-04-01T18:05:09.988Z,75.28
2018-04-01T18:07:37.944Z,77.54
2018-04-01T18:10:06.245Z,78.52
2018-04-01T18:12:34.001Z,80.46
2018-04-01T18:15:01.524Z,81.65
2018-04-01T18:17:29.085Z,84.81
2018-04-01T18:19:57.039Z,87.11
2018-04-01T18:22:25.307Z,87.81
2018-04-01T18:24:52.883Z,88.69
2018-04-01T18:27:20.460Z,88.49
2018-04-01T18:29:47.980Z,87.71
2018-04-01T18:32:15.515Z,87.14
2018-04-01T18:34:43.188Z,85.58
2018-04-01T18:37:10.996Z,85.41
2018-04-01T18:39:38.760Z,85.60
2018-04-01T18:42:06.746Z,84.38
2018-04-01T18:44:34.344Z,84.76
2018-04-01T18:47:03.153Z,85.56
2018-04-01T18:49:31.857Z,85.48
2018-04-01T18:51:59.371Z,84.85
2018-04-01T18:54:27.982Z,85.21
2018-04-01T18:56:55.735Z,85.05
2018-04-01T18:59:23.276Z,84.65
2018-04-01T19:01:52.137Z,84.68
2018-04-01T19:04:21.237Z,85.59
2018-04-01T19:06:49.373Z,85.09
2018-04-01T19:09:17.329Z,85.07
2018-04-01T19:11:45.140Z,85.15
2018-04-01T19:14:12.675Z,85.55
2018-04-01T19:16:53.727Z,84.71
2018-04-01T19:19:22.232Z,85.21
2018-04-01T19:21:50.740Z,85.41
2018-04-01T19:24:19.903Z,85.58
2018-04-01T19:26:48.777Z,84.72
2018-04-01T19:29:17.936Z,85.02
2018-04-01T19:31:46.649Z,85.45
2018-04-01T19:34:20.931Z,85.40
2018-04-01T19:36:50.139Z,85.59
2018-04-01T19:39:19.048Z,85.71
2018-04-01T19:41:47.369Z,85.69
2018-04-01T19:44:15.849Z,85.60
2018-04-01T19:46:45.594Z,85.55
2018-04-01T19:49:14.914Z,85.78
2018-04-01T19:51:43.708Z,85.87
2018-04-01T19:54:12.082Z,85.76
2018-04-01T19:56:41.137Z,85.48
2018-04-01T19:59:10.242Z,85.51
2018-04-01T20:01:38.729Z,85.76
2018-04-01T20:04:07.761Z,85.89
2018-04-01T20:06:36.823Z,86.54
2018-04-01T20:09:06.348Z,87.53
2018-04-01T20:11:35.537Z,87.72
2018-04-01T20:14:04.131Z,87.59
2018-04-01T20:16:33.817Z,88.28
2018-04-01T20:19:01.621Z,88.69
2018-04-01T20:21:30.392Z,88.89
2018-04-01T20:23:58.764Z,88.93
2018-04-01T20:26:27.077Z,89.23
2018-04-01T20:28:55.394Z,89.63
2018-04-01T20:31:23.748Z,89.30
2018-04-01T20:33:52.060Z,89.73
2018-04-01T20:36:21.137Z,89.60
2018-04-01T20:38:50.140Z,90.27
2018-04-01T20:41:19.249Z,89.47
2018-04-01T20:43:47.640Z,89.30
2018-04-01T20:46:16.449Z,89.27
2018-04-01T20:48:44.768Z,89.57
2018-04-01T20:51:13.155Z,88.84
2018-04-01T20:53:42.155Z,88.40
2018-04-01T20:56:15.896Z,88.47
2018-04-01T20:58:44.976Z,88.74
2018-04-01T21:01:14.480Z,88.87
2018-04-01T21:03:44.233Z,89.41
2018-04-01T21:06:12.541Z,89.86
2018-04-01T21:08:40.900Z,89.11
2018-04-01T21:11:09.874Z,89.18
2018-04-01T21:13:38.193Z,88.96
2018-04-01T21:16:07.308Z,89.22
2018-04-01T21:18:36.589Z,88.92
2018-04-01T21:21:06.220Z,88.68
2018-04-01T21:23:34.644Z,88.44
2018-04-01T21:26:04.484Z,87.36
2018-04-01T21:28:33.484Z,87.11
2018-04-01T21:31:01.896Z,86.76
2018-04-01T21:33:30.269Z,86.27
2018-04-01T21:35:58.580Z,86.33
2018-04-01T21:38:27.449Z,86.01
2018-04-01T21:40:55.824Z,85.89
2018-04-01T21:43:24.223Z,85.81
2018-04-01T21:45:52.535Z,86.04
2018-04-01T21:48:24.691Z,85.99
2018-04-01T21:50:54.954Z,85.29
2018-04-01T21:53:23.875Z,85.47
2018-04-01T21:55:52.185Z,85.00
2018-04-01T21:58:21.344Z,85.03
2018-04-01T22:00:50.132Z,84.94
2018-04-01T22:03:18.500Z,84.91
2018-04-01T22:05:47.304Z,85.11
2018-04-01T22:08:16.124Z,84.85
2018-04-01T22:10:44.875Z,85.72
2018-04-01T22:13:13.999Z,85.77
2018-04-01T22:15:43.112Z,85.51
2018-04-01T22:18:11.424Z,85.94
2018-04-01T22:20:41.318Z,86.19
2018-04-01T22:23:13.925Z,86.22
2018-04-01T22:25:42.279Z,85.74
2018-04-01T22:28:11.042Z,85.44
2018-04-01T22:30:39.364Z,85.52
2018-04-01T22:33:08.588Z,85.61
2018-04-01T22:35:37.533Z,85.26
2018-04-01T22:38:05.844Z,85.44
2018-04-01T22:40:34.304Z,85.11
2018-04-01T22:43:04.109Z,84.42
2018-04-01T22:45:32.418Z,84.65
2018-04-01T22:48:00.988Z,84.92
2018-04-01T22:50:30.084Z,85.42
2018-04-01T22:52:59.509Z,86.19
2018-04-01T22:55:27.867Z,86.12
2018-04-01T22:58:00.971Z,86.47
2018-04-01T23:00:29.565Z,86.60
2018-04-01T23:02:58.505Z,86.89
2018-04-01T23:05:27.448Z,87.47
2018-04-01T23:07:55.761Z,87.84
2018-04-01T23:10:24.245Z,88.06
2018-04-01T23:12:54.071Z,88.25
2018-04-01T23:15:23.077Z,88.39
2018-04-01T23:17:52.194Z,89.04
2018-04-01T23:20:24.668Z,89.11
2018-04-01T23:22:52.981Z,89.34
2018-04-01T23:25:21.489Z,89.80
2018-04-01T23:27:49.863Z,90.31
2018-04-01T23:30:18.224Z,90.57
2018-04-01T23:32:46.528Z,90.87
2018-04-01T23:35:16.777Z,91.02
2018-04-01T23:37:51.323Z,91.14
2018-04-01T23:40:21.364Z,91.40
2018-04-01T23:42:49.738Z,91.58
2018-04-01T23:45:19.211Z,91.85
2018-04-01T23:47:47.749Z,92.15
2018-04-01T23:50:16.889Z,92.29
2018-04-01T23:52:45.242Z,92.18
2018-04-01T23:55:13.557Z,92.22
2018-04-01T23:57:41.999Z,92.02
